createdAt,value
2023-04-21T00:00:26.499Z,15.31
2023-04-21T00:02:54.690Z,15.36
2023-04-21T00:05:23.055Z,15.38
2023-04-21T00:07:51.326Z,15.28
2023-04-21T00:10:19.585Z,15.30
2023-04-21T00:12:48.963Z,15.25
2023-04-21T00:15:17.020Z,15.27
2023-04-21T00:17:45.674Z,15.25
2023-04-21T00:20:14.518Z,15.25
2023-04-21T00:22:42.530Z,15.18
2023-04-21T00:25:11.068Z,15.16
2023-04-21T00:27:39.096Z,15.25
2023-04-21T00:30:10.554Z,15.26
2023-04-21T00:32:38.697Z,15.29
2023-04-21T00:35:07.312Z,15.28
2023-04-21T00:37:35.461Z,15.29
2023-04-21T00:40:05.873Z,15.24
2023-04-21T00:42:33.992Z,15.26
2023-04-21T00:45:03.177Z,15.25
2023-04-21T00:47:33.489Z,15.21
2023-04-21T00:50:01.733Z,15.13
2023-04-21T00:52:30.798Z,15.16
2023-04-21T00:54:59.191Z,15.08
2023-04-21T00:57:28.732Z,15.11
2023-04-21T00:59:56.742Z,15.15
2023-04-21T01:02:26.261Z,15.11
2023-04-21T01:04:55.906Z,15.14
2023-04-21T01:07:26.170Z,15.10
2023-04-21T01:09:54.182Z,15.09
2023-04-21T01:12:22.214Z,15.01
2023-04-21T01:14:50.651Z,15.08
2023-04-21T01:17:19.021Z,15.11
2023-04-21T01:19:49.066Z,15.17
2023-04-21T01:22:18.717Z,15.17
2023-04-21T01:24:49.505Z,15.17
2023-04-21T01:27:19.298Z,15.15
2023-04-21T01:29:49.895Z,15.11
2023-04-21T01:32:19.514Z,15.11
2023-04-21T01:34:47.851Z,15.09
2023-04-21T01:37:19.057Z,15.06
2023-04-21T01:39:52.150Z,15.01
2023-04-21T01:42:20.951Z,15.02
2023-04-21T01:44:49.620Z,14.99
2023-04-21T01:47:19.137Z,14.96
2023-04-21T01:49:47.250Z,15.00
2023-04-21T01:52:15.283Z,15.01
2023-04-21T01:54:44.772Z,15.00
2023-04-21T01:57:13.107Z,14.83
2023-04-21T01:59:41.491Z,14.75
2023-04-21T02:02:10.033Z,14.88
2023-04-21T02:04:38.251Z,14.83
2023-04-21T02:07:07.328Z,14.73
2023-04-21T02:09:35.794Z,14.72
2023-04-21T02:12:05.667Z,14.77
2023-04-21T02:14:33.838Z,14.77
2023-04-21T02:17:03.663Z,14.82
2023-04-21T02:19:32.137Z,14.79
2023-04-21T02:22:00.247Z,14.71
2023-04-21T02:24:28.335Z,14.79
2023-04-21T02:26:57.672Z,14.66
2023-04-21T02:29:27.142Z,14.70
2023-04-21T02:32:03.064Z,14.71
2023-04-21T02:34:33.736Z,14.63
2023-04-21T02:37:02.508Z,14.57
2023-04-21T02:39:30.765Z,14.59
2023-04-21T02:41:59.014Z,14.68
2023-04-21T02:44:30.156Z,14.75
2023-04-21T02:46:58.176Z,14.73
2023-04-21T02:49:26.313Z,14.63
2023-04-21T02:51:55.074Z,14.68
2023-04-21T02:54:23.128Z,14.58
2023-04-21T02:56:51.399Z,14.59
2023-04-21T02:59:19.885Z,14.53
2023-04-21T03:01:49.812Z,14.54
2023-04-21T03:04:18.068Z,14.70
2023-04-21T03:06:46.184Z,14.64
2023-04-21T03:09:14.313Z,14.71
2023-04-21T03:11:42.333Z,14.67
2023-04-21T03:14:10.388Z,14.64
2023-04-21T03:16:38.764Z,14.70
2023-04-21T03:19:08.370Z,14.71
2023-04-21T03:21:38.418Z,14.68
2023-04-21T03:24:07.550Z,14.71
2023-04-21T03:26:35.848Z,14.74
2023-04-21T03:29:03.853Z,14.67
2023-04-21T03:31:31.947Z,14.70
2023-04-21T03:34:00.135Z,14.77
2023-04-21T03:36:29.965Z,14.75
2023-04-21T03:39:03.337Z,14.82
2023-04-21T03:41:37.634Z,14.68
2023-04-21T03:44:05.946Z,14.59
2023-04-21T03:46:34.346Z,14.53
2023-04-21T03:49:17.886Z,14.42
2023-04-21T03:51:47.489Z,14.37
2023-04-21T03:54:15.596Z,14.33
2023-04-21T03:56:43.670Z,14.33
2023-04-21T03:59:11.785Z,14.28
2023-04-21T04:01:39.804Z,14.22
2023-04-21T04:04:08.115Z,14.17
2023-04-21T04:06:36.918Z,14.14
2023-04-21T04:09:06.326Z,14.13
2023-04-21T04:11:34.544Z,14.12
2023-04-21T04:14:02.627Z,14.05
2023-04-21T04:16:31.101Z,14.04
2023-04-21T04:18:59.256Z,13.95
2023-04-21T04:21:27.592Z,13.90
2023-04-21T04:23:55.902Z,13.91
2023-04-21T04:26:25.720Z,13.90
2023-04-21T04:28:56.248Z,13.93
2023-04-21T04:31:25.374Z,13.89
2023-04-21T04:33:55.481Z,13.91
2023-04-21T04:36:24.164Z,13.90
2023-04-21T04:38:52.308Z,13.84
2023-04-21T04:41:20.969Z,13.89
2023-04-21T04:43:51.185Z,13.90
2023-04-21T04:46:20.619Z,13.91
2023-04-21T04:48:49.264Z,13.86
2023-04-21T04:51:17.406Z,13.92
2023-04-21T04:53:45.564Z,13.96
2023-04-21T04:56:13.606Z,13.93
2023-04-21T04:58:41.642Z,13.95
2023-04-21T05:01:14.928Z,13.85
2023-04-21T05:03:43.555Z,13.96
2023-04-21T05:06:12.167Z,13.98
2023-04-21T05:08:41.354Z,14.00
2023-04-21T05:11:09.523Z,14.06
2023-04-21T05:13:39.753Z,14.07
2023-04-21T05:16:10.200Z,14.15
2023-04-21T05:18:39.823Z,14.17
2023-04-21T05:21:08.387Z,14.22
2023-04-21T05:23:36.390Z,14.27
2023-04-21T05:26:05.085Z,14.33
2023-04-21T05:28:33.330Z,14.34
2023-04-21T05:31:01.471Z,14.40
2023-04-21T05:33:31.896Z,14.41
2023-04-21T05:36:01.451Z,14.52
2023-04-21T05:38:29.519Z,14.57
2023-04-21T05:40:57.651Z,14.57
2023-04-21T05:43:25.661Z,14.65
2023-04-21T05:45:53.974Z,14.73
2023-04-21T05:48:22.069Z,14.81
2023-04-21T05:50:50.148Z,14.88
2023-04-21T05:53:19.651Z,14.93
2023-04-21T05:55:47.829Z,14.98
2023-04-21T05:58:15.940Z,15.14
2023-04-21T06:00:43.994Z,15.24
2023-04-21T06:03:12.150Z,15.37
2023-04-21T06:05:40.248Z,15.51
2023-04-21T06:08:08.321Z,15.60
2023-04-21T06:10:37.767Z,15.63
2023-04-21T06:13:05.844Z,15.69
2023-04-21T06:15:33.883Z,15.78
2023-04-21T06:18:01.929Z,15.91
2023-04-21T06:20:30.058Z,16.02
2023-04-21T06:22:58.131Z,16.05
2023-04-21T06:25:26.244Z,16.16
2023-04-21T06:27:56.367Z,16.20
2023-04-21T06:30:24.611Z,16.28
2023-04-21T06:32:52.721Z,16.36
2023-04-21T06:35:20.918Z,16.45
2023-04-21T06:37:48.924Z,16.43
2023-04-21T06:40:17.020Z,16.37
2023-04-21T06:42:45.113Z,16.56
2023-04-21T06:45:14.517Z,16.74
2023-04-21T06:47:42.600Z,16.87
2023-04-21T06:50:11.645Z,16.91
2023-04-21T06:52:39.708Z,16.88
2023-04-21T06:55:08.728Z,17.06
2023-04-21T06:57:36.818Z,17.20
2023-04-21T07:00:06.828Z,17.28
2023-04-21T07:02:36.390Z,17.39
2023-04-21T07:05:04.891Z,17.50
2023-04-21T07:07:32.938Z,17.60
2023-04-21T07:10:01.209Z,17.73
2023-04-21T07:12:29.393Z,17.75
2023-04-21T07:14:57.401Z,17.84
2023-04-21T07:17:25.569Z,18.04
2023-04-21T07:19:55.043Z,18.32
2023-04-21T07:22:23.137Z,18.74
2023-04-21T07:24:51.533Z,19.21
2023-04-21T07:27:20.236Z,19.52
2023-04-21T07:29:48.240Z,19.75
2023-04-21T07:32:16.299Z,19.95
2023-04-21T07:34:46.923Z,20.14
2023-04-21T07:37:16.457Z,20.26
2023-04-21T07:39:44.460Z,20.45
2023-04-21T07:42:12.528Z,20.65
2023-04-21T07:44:40.917Z,20.73
2023-04-21T07:47:09.206Z,20.91
2023-04-21T07:49:37.484Z,21.16
2023-04-21T07:52:05.755Z,21.39
2023-04-21T07:54:35.506Z,21.67
2023-04-21T07:57:03.877Z,21.91
2023-04-21T07:59:32.190Z,22.06
2023-04-21T08:02:00.522Z,22.31
2023-04-21T08:04:29.412Z,22.63
2023-04-21T08:06:58.089Z,22.66
2023-04-21T08:09:27.309Z,22.67
2023-04-21T08:11:58.117Z,22.56
2023-04-21T08:14:27.099Z,22.66
2023-04-21T08:16:57.201Z,22.69
2023-04-21T08:19:25.938Z,22.86
2023-04-21T08:21:54.288Z,22.95
2023-04-21T08:24:22.928Z,23.02
2023-04-21T08:26:51.438Z,23.05
2023-04-21T08:29:21.315Z,22.97
2023-04-21T08:31:49.697Z,23.01
2023-04-21T08:36:48.774Z,23.39
2023-04-21T08:39:17.700Z,23.57
2023-04-21T08:41:46.403Z,23.67
2023-04-21T08:44:15.839Z,23.81
2023-04-21T08:46:46.232Z,23.95
2023-04-21T08:49:19.729Z,23.91
2023-04-21T08:51:49.056Z,23.94
2023-04-21T08:54:17.364Z,24.13
2023-04-21T08:56:45.672Z,24.08
2023-04-21T08:59:13.997Z,24.06
2023-04-21T09:02:12.514Z,24.05
2023-04-21T09:04:42.064Z,24.16
2023-04-21T09:07:11.012Z,23.91
2023-04-21T09:09:55.615Z,24.11
2023-04-21T09:12:24.164Z,24.58
2023-04-21T09:14:52.561Z,25.05
2023-04-21T09:17:24.266Z,25.23
2023-04-21T09:19:52.618Z,25.28
2023-04-21T09:22:20.901Z,25.22
2023-04-21T09:24:49.925Z,25.52
2023-04-21T09:27:18.582Z,25.80
2023-04-21T09:29:50.067Z,25.65
2023-04-21T09:32:19.733Z,25.57
2023-04-21T09:34:49.575Z,25.64
2023-04-21T09:37:19.173Z,26.03
2023-04-21T09:40:03.265Z,26.20
2023-04-21T09:42:37.855Z,26.22
2023-04-21T09:45:32.394Z,26.24
2023-04-21T09:48:00.798Z,26.52
2023-04-21T09:53:04.945Z,27.34
2023-04-21T09:55:35.127Z,27.36
2023-04-21T09:58:05.500Z,27.38
2023-04-21T10:00:39.397Z,27.40
2023-04-21T10:03:11.584Z,27.25
2023-04-21T10:05:43.109Z,27.51
2023-04-21T10:08:12.716Z,27.76
2023-04-21T10:10:41.567Z,27.69
2023-04-21T10:13:16.003Z,27.63
2023-04-21T10:15:44.464Z,27.68
2023-04-21T10:18:14.521Z,27.82
2023-04-21T10:20:58.197Z,28.08
2023-04-21T10:23:34.633Z,28.23
2023-04-21T10:26:04.795Z,28.48
2023-04-21T10:28:44.199Z,28.74
2023-04-21T10:31:34.651Z,28.79
2023-04-21T10:34:35.502Z,28.70
2023-04-21T10:37:19.793Z,28.84
2023-04-21T10:39:54.771Z,28.79
2023-04-21T10:42:34.811Z,28.76
2023-04-21T10:45:13.932Z,29.23
2023-04-21T10:47:45.308Z,29.42
2023-04-21T10:50:16.997Z,29.39
2023-04-21T10:52:48.830Z,29.13
2023-04-21T10:55:17.206Z,29.06
2023-04-21T10:57:46.730Z,29.22
2023-04-21T11:00:20.496Z,29.37
2023-04-21T11:02:56.806Z,29.45
2023-04-21T11:05:36.432Z,29.53
2023-04-21T11:08:16.760Z,29.66
2023-04-21T11:10:56.089Z,29.67
2023-04-21T11:13:26.447Z,30.07
2023-04-21T11:15:59.288Z,30.15
2023-04-21T11:18:49.067Z,30.21
2023-04-21T11:21:20.230Z,30.20
2023-04-21T11:23:54.901Z,30.54
2023-04-21T11:26:34.361Z,30.68
2023-04-21T11:29:10.881Z,30.57
2023-04-21T11:31:41.425Z,30.36
2023-04-21T11:34:09.953Z,30.34
2023-04-21T11:36:39.831Z,30.35
2023-04-21T11:39:11.493Z,30.01
2023-04-21T11:41:42.430Z,30.05
2023-04-21T11:44:11.582Z,30.37
2023-04-21T11:46:46.553Z,30.63
2023-04-21T11:49:17.158Z,30.78
2023-04-21T11:51:46.929Z,31.06
2023-04-21T11:54:22.029Z,30.96
2023-04-21T11:56:50.376Z,30.87
2023-04-21T11:59:25.007Z,31.07
2023-04-21T12:01:55.590Z,31.27
2023-04-21T12:04:25.321Z,31.29
2023-04-21T12:06:59.346Z,31.46
2023-04-21T12:09:29.741Z,31.42
2023-04-21T12:11:59.955Z,31.31
2023-04-21T12:14:28.343Z,31.12
2023-04-21T12:16:58.664Z,31.09
2023-04-21T12:19:36.892Z,31.38
2023-04-21T12:22:09.600Z,31.35
2023-04-21T12:24:39.698Z,31.41
2023-04-21T12:27:09.163Z,31.49
2023-04-21T12:29:38.596Z,31.42
2023-04-21T12:32:07.612Z,31.11
2023-04-21T12:34:36.350Z,31.01
2023-04-21T12:37:06.346Z,31.27
2023-04-21T12:39:35.668Z,31.04
2023-04-21T12:42:06.257Z,31.21
2023-04-21T12:44:34.578Z,31.59
2023-04-21T12:47:02.986Z,31.67
2023-04-21T12:49:31.671Z,31.40
2023-04-21T12:52:00.739Z,31.18
2023-04-21T12:54:29.140Z,30.98
2023-04-21T12:56:58.118Z,31.24
2023-04-21T12:59:28.014Z,31.50
2023-04-21T13:01:56.683Z,31.63
2023-04-21T13:04:25.164Z,31.38
2023-04-21T13:06:53.709Z,31.10
2023-04-21T13:09:21.988Z,31.24
2023-04-21T13:11:51.768Z,31.69
2023-04-21T13:14:20.099Z,31.88
2023-04-21T13:16:49.968Z,31.67
2023-04-21T13:19:18.572Z,31.29
2023-04-21T13:21:46.885Z,31.39
2023-04-21T13:24:15.214Z,31.10
2023-04-21T13:26:43.658Z,31.20
2023-04-21T13:29:12.122Z,31.43
2023-04-21T13:31:40.696Z,31.61
2023-04-21T13:34:11.021Z,31.74
2023-04-21T13:36:39.390Z,31.84
2023-04-21T13:39:11.097Z,31.85
2023-04-21T13:41:39.472Z,32.32
2023-04-21T13:44:07.863Z,32.69
2023-04-21T13:46:36.439Z,31.98
2023-04-21T13:49:04.715Z,31.87
2023-04-21T13:51:34.450Z,32.22
2023-04-21T13:54:02.776Z,32.22
2023-04-21T13:56:31.288Z,32.29
2023-04-21T13:59:00.643Z,32.63
2023-04-21T14:01:29.108Z,32.62
2023-04-21T14:03:57.631Z,32.48
2023-04-21T14:06:26.633Z,32.42
2023-04-21T14:08:56.332Z,32.30
2023-04-21T14:11:24.657Z,32.42
2023-04-21T14:16:28.227Z,31.54
2023-04-21T14:18:56.574Z,31.39
2023-04-21T14:21:25.017Z,31.51
2023-04-21T14:23:53.374Z,31.26
2023-04-21T14:26:23.449Z,31.44
2023-04-21T14:28:51.965Z,31.37
2023-04-21T14:31:22.116Z,31.42
2023-04-21T14:33:50.707Z,31.54
2023-04-21T14:36:19.160Z,31.63
2023-04-21T14:38:47.719Z,31.40
2023-04-21T14:41:15.995Z,31.05
2023-04-21T14:43:47.619Z,30.98
2023-04-21T14:46:17.398Z,30.81
2023-04-21T14:48:45.883Z,30.65
2023-04-21T14:51:14.265Z,30.41
2023-04-21T14:53:42.578Z,30.55
2023-04-21T14:56:11.043Z,30.45
2023-04-21T14:58:39.402Z,30.55
2023-04-21T15:01:10.673Z,30.48
2023-04-21T15:03:39.152Z,30.49
2023-04-21T15:06:07.957Z,30.44
2023-04-21T15:08:36.368Z,30.32
2023-04-21T15:11:05.388Z,30.28
2023-04-21T15:13:34.153Z,30.19
2023-04-21T15:16:02.429Z,30.31
2023-04-21T15:18:32.225Z,30.26
2023-04-21T15:21:00.589Z,30.04
2023-04-21T15:23:29.459Z,29.82
2023-04-21T15:25:58.128Z,29.63
2023-04-21T15:28:26.799Z,29.63
2023-04-21T15:30:55.302Z,29.88
2023-04-21T15:33:23.706Z,29.95
2023-04-21T15:35:53.542Z,29.88
2023-04-21T15:38:22.062Z,29.97
2023-04-21T15:41:00.568Z,30.08
2023-04-21T15:43:29.746Z,29.94
2023-04-21T15:45:58.028Z,29.89
2023-04-21T15:48:26.596Z,29.80
2023-04-21T15:50:59.604Z,29.68
2023-04-21T15:53:28.209Z,29.58
2023-04-21T15:55:56.456Z,29.44
2023-04-21T15:58:24.751Z,29.52
2023-04-21T16:00:53.141Z,29.50
2023-04-21T16:03:22.567Z,29.50
2023-04-21T16:05:51.397Z,29.56
2023-04-21T16:08:21.625Z,29.50
2023-04-21T16:10:49.984Z,29.36
2023-04-21T16:13:18.879Z,29.38
2023-04-21T16:15:47.375Z,29.20
2023-04-21T16:18:15.867Z,29.15
2023-04-21T16:20:46.094Z,29.06
2023-04-21T16:23:15.055Z,28.90
2023-04-21T16:25:45.104Z,28.95
2023-04-21T16:28:13.581Z,28.95
2023-04-21T16:30:43.610Z,28.89
2023-04-21T16:33:13.320Z,28.85
2023-04-21T16:35:41.918Z,28.83
2023-04-21T16:38:10.709Z,28.75
2023-04-21T16:40:38.997Z,28.72
2023-04-21T16:43:08.686Z,28.74
2023-04-21T16:45:37.115Z,28.77
2023-04-21T16:48:05.884Z,28.52
2023-04-21T16:50:34.468Z,28.56
2023-04-21T16:53:02.836Z,28.45
2023-04-21T16:55:31.529Z,28.26
2023-04-21T16:58:00.777Z,28.20
2023-04-21T17:00:31.281Z,28.12
2023-04-21T17:02:59.789Z,28.06
2023-04-21T17:05:28.283Z,28.08
2023-04-21T17:07:56.588Z,27.98
2023-04-21T17:10:27.083Z,27.95
2023-04-21T17:12:55.435Z,27.94
2023-04-21T17:15:23.739Z,27.85
2023-04-21T17:17:53.487Z,27.68
2023-04-21T17:20:22.098Z,27.73
2023-04-21T17:22:50.495Z,27.66
2023-04-21T17:25:18.761Z,27.53
2023-04-21T17:27:47.172Z,27.55
2023-04-21T17:30:15.816Z,27.52
2023-04-21T17:32:44.540Z,27.46
2023-04-21T17:35:14.448Z,27.32
2023-04-21T17:37:42.732Z,27.10
2023-04-21T17:40:12.399Z,27.06
2023-04-21T17:42:41.817Z,27.06
2023-04-21T17:45:10.754Z,26.94
2023-04-21T17:47:39.322Z,26.85
2023-04-21T17:50:09.972Z,26.66
2023-04-21T17:52:39.901Z,26.49
2023-04-21T17:55:08.920Z,26.33
2023-04-21T17:57:37.252Z,26.18
2023-04-21T18:00:08.609Z,26.15
2023-04-21T18:02:37.113Z,25.92
2023-04-21T18:05:06.710Z,25.82
2023-04-21T18:07:35.120Z,25.81
2023-04-21T18:10:05.344Z,25.66
2023-04-21T18:12:33.636Z,25.62
2023-04-21T18:15:02.281Z,25.50
2023-04-21T18:17:30.721Z,25.51
2023-04-21T18:19:58.997Z,25.48
2023-04-21T18:22:27.284Z,25.45
2023-04-21T18:24:55.615Z,25.37
2023-04-21T18:27:26.816Z,25.29
2023-04-21T18:29:55.157Z,25.19
2023-04-21T18:32:23.381Z,25.10
2023-04-21T18:34:51.728Z,25.07
2023-04-21T18:37:20.046Z,24.95
2023-04-21T18:39:48.303Z,24.84
2023-04-21T18:42:16.560Z,24.74
2023-04-21T18:44:46.237Z,24.68
2023-04-21T18:47:15.566Z,24.62
2023-04-21T18:49:45.243Z,24.49
2023-04-21T18:52:15.237Z,24.41
2023-04-21T18:54:43.583Z,24.35
2023-04-21T18:57:12.007Z,24.31
2023-04-21T18:59:40.282Z,24.16
2023-04-21T19:02:13.599Z,24.09
2023-04-21T19:04:43.861Z,24.01
2023-04-21T19:07:12.716Z,23.88
2023-04-21T19:09:40.957Z,23.83
2023-04-21T19:12:09.354Z,23.67
2023-04-21T19:14:46.484Z,23.56
2023-04-21T19:17:17.268Z,23.55
2023-04-21T19:19:45.568Z,23.52
2023-04-21T19:22:13.910Z,23.46
2023-04-21T19:24:42.232Z,23.42
2023-04-21T19:27:10.766Z,23.37
2023-04-21T19:29:39.102Z,23.26
2023-04-21T19:32:08.279Z,23.20
2023-04-21T19:34:38.236Z,23.10
2023-04-21T19:37:06.962Z,22.97
2023-04-21T19:39:35.301Z,22.98
2023-04-21T19:42:03.697Z,22.90
2023-04-21T19:44:31.973Z,22.86
2023-04-21T19:47:00.957Z,22.83
2023-04-21T19:49:29.388Z,22.77
2023-04-21T19:51:59.043Z,22.76
2023-04-21T19:54:27.470Z,22.68
2023-04-21T19:56:56.499Z,22.62
2023-04-21T19:59:24.796Z,22.62
2023-04-21T20:01:53.060Z,22.56
2023-04-21T20:04:21.509Z,22.48
2023-04-21T20:06:50.152Z,22.49
2023-04-21T20:09:19.952Z,22.46
2023-04-21T20:11:48.326Z,22.35
2023-04-21T20:14:17.121Z,22.27
2023-04-21T20:16:46.437Z,22.24
2023-04-21T20:19:17.344Z,22.12
2023-04-21T20:21:45.774Z,22.05
2023-04-21T20:24:14.040Z,21.96
2023-04-21T20:26:43.735Z,21.88
2023-04-21T20:29:11.977Z,21.75
2023-04-21T20:31:40.347Z,21.73
2023-04-21T20:34:08.829Z,21.69
2023-04-21T20:36:37.988Z,21.66
2023-04-21T20:39:06.973Z,21.54
2023-04-21T20:41:35.196Z,21.44
2023-04-21T20:44:06.203Z,21.38
2023-04-21T20:46:34.587Z,21.33
2023-04-21T20:49:02.773Z,21.29
2023-04-21T20:51:32.523Z,21.27
2023-04-21T20:54:01.053Z,21.21
2023-04-21T20:56:29.389Z,21.05
2023-04-21T20:58:57.692Z,21.10
2023-04-21T21:01:30.039Z,21.01
2023-04-21T21:04:01.370Z,21.00
2023-04-21T21:06:30.096Z,20.93
2023-04-21T21:08:58.442Z,20.91
2023-04-21T21:11:26.754Z,20.91
2023-04-21T21:13:55.062Z,20.89
2023-04-21T21:16:23.930Z,20.92
2023-04-21T21:18:53.761Z,20.91
2023-04-21T21:21:22.092Z,20.91
2023-04-21T21:23:50.490Z,20.91
2023-04-21T21:26:18.887Z,20.91
2023-04-21T21:28:47.243Z,20.91
2023-04-21T21:31:15.559Z,20.92
2023-04-21T21:33:43.929Z,20.84
2023-04-21T21:36:13.689Z,20.86
2023-04-21T21:38:42.061Z,20.80
2023-04-21T21:41:12.265Z,20.77
2023-04-21T21:43:40.582Z,20.75
2023-04-21T21:46:09.564Z,20.71
2023-04-21T21:48:37.831Z,20.72
2023-04-21T21:51:06.313Z,20.69
2023-04-21T21:53:35.938Z,20.66
2023-04-21T21:56:04.211Z,20.61
2023-04-21T21:58:32.743Z,20.60
2023-04-21T22:01:01.063Z,20.57
2023-04-21T22:03:29.625Z,20.57
2023-04-21T22:05:58.152Z,20.47
2023-04-21T22:08:26.874Z,20.47
2023-04-21T22:11:01.378Z,20.37
2023-04-21T22:13:29.702Z,20.39
2023-04-21T22:15:58.021Z,20.45
2023-04-21T22:18:27.135Z,20.43
2023-04-21T22:20:55.512Z,20.42
2023-04-21T22:23:23.797Z,20.47
2023-04-21T22:25:52.490Z,20.47
2023-04-21T22:28:22.149Z,20.54
2023-04-21T22:30:50.501Z,20.46
2023-04-21T22:33:18.823Z,20.54
2023-04-21T22:35:47.080Z,20.51
2023-04-21T22:38:15.405Z,20.53
2023-04-21T22:40:43.760Z,20.58
2023-04-21T22:43:12.197Z,20.53
2023-04-21T22:45:43.020Z,20.56
2023-04-21T22:48:11.426Z,20.55
2023-04-21T22:50:39.738Z,20.54
2023-04-21T22:53:08.064Z,20.54
2023-04-21T22:55:36.668Z,20.55
2023-04-21T22:58:04.897Z,20.58
2023-04-21T23:00:33.323Z,20.54
2023-04-21T23:03:03.091Z,20.58
2023-04-21T23:05:31.543Z,20.56
2023-04-21T23:07:59.825Z,20.50
2023-04-21T23:10:29.217Z,20.47
2023-04-21T23:12:57.731Z,20.51
2023-04-21T23:15:26.908Z,20.47
2023-04-21T23:17:55.293Z,20.45
2023-04-21T23:20:25.084Z,20.51
2023-04-21T23:22:53.400Z,20.59
2023-04-21T23:25:21.935Z,20.62
2023-04-21T23:27:50.303Z,20.58
2023-04-21T23:30:18.708Z,20.50
2023-04-21T23:32:47.113Z,20.49
2023-04-21T23:35:15.512Z,20.33
2023-04-21T23:37:46.536Z,20.22
2023-04-21T23:40:15.192Z,20.26
2023-04-21T23:42:47.166Z,20.22
2023-04-21T23:45:16.164Z,20.18
2023-04-21T23:47:45.751Z,20.20
2023-04-21T23:50:14.223Z,20.28
2023-04-21T23:52:44.214Z,20.32
2023-04-21T23:55:16.343Z,20.36
2023-04-21T23:57:46.858Z,20.37
